createdAt,value
2023-05-08T00:01:12.799Z,101695.59
2023-05-08T00:03:40.052Z,101687.03
2023-05-08T00:06:07.294Z,101694.84
2023-05-08T00:08:34.342Z,101689.03
2023-05-08T00:11:01.318Z,101689.19
2023-05-08T00:13:28.414Z,101678.78
2023-05-08T00:15:55.451Z,101682.47
2023-05-08T00:18:22.506Z,101675.06
2023-05-08T00:20:49.470Z,101666.81
2023-05-08T00:23:16.418Z,101675.91
2023-05-08T00:25:43.444Z,101672.53
2023-05-08T00:28:10.564Z,101676.22
2023-05-08T00:30:38.362Z,101680.22
2023-05-08T00:33:05.469Z,101681.94
2023-05-08T00:35:32.461Z,101671.94
2023-05-08T00:37:59.867Z,101669.41
2023-05-08T00:40:27.084Z,101671.69
2023-05-08T00:42:54.592Z,101671.69
2023-05-08T00:45:21.499Z,101662.16
2023-05-08T00:47:49.945Z,101659.75
2023-05-08T00:50:17.999Z,101671.16
2023-05-08T00:52:45.129Z,101666.03
2023-05-08T00:55:12.857Z,101668.91
2023-05-08T00:57:40.358Z,101664.91
2023-05-08T01:00:08.485Z,101661.78
2023-05-08T01:02:36.347Z,101659.66
2023-05-08T01:05:04.126Z,101652.69
2023-05-08T01:07:31.236Z,101651.84
2023-05-08T01:09:58.290Z,101651.97
2023-05-08T01:12:40.397Z,101650.44
2023-05-08T01:15:16.975Z,101651.69
2023-05-08T01:18:11.031Z,101654.25
2023-05-08T01:20:57.263Z,101654.13
2023-05-08T01:23:48.606Z,101652.28
2023-05-08T01:26:37.061Z,101652.69
2023-05-08T01:29:25.703Z,101652.97
2023-05-08T01:32:23.577Z,101656.94
2023-05-08T01:35:10.770Z,101661.78
2023-05-08T01:37:45.153Z,101668.31
2023-05-08T01:40:28.561Z,101658.25
2023-05-08T01:43:11.005Z,101652.28
2023-05-08T01:45:45.237Z,101659.94
2023-05-08T01:48:21.454Z,101665.78
2023-05-08T01:50:55.816Z,101656.66
2023-05-08T01:53:56.106Z,101663.22
2023-05-08T01:56:25.452Z,101663.78
2023-05-08T01:58:55.567Z,101664.63
2023-05-08T02:01:26.076Z,101666.66
2023-05-08T02:03:57.575Z,101662.91
2023-05-08T02:06:27.011Z,101664.94
2023-05-08T02:08:56.301Z,101658.25
2023-05-08T02:11:24.914Z,101655.53
2023-05-08T02:13:53.019Z,101664.06
2023-05-08T02:16:22.210Z,101657.50
2023-05-08T02:18:53.207Z,101656.22
2023-05-08T02:21:22.257Z,101659.66
2023-05-08T02:23:50.710Z,101656.38
2023-05-08T02:26:19.027Z,101657.25
2023-05-08T02:28:46.822Z,101653.53
2023-05-08T02:31:14.455Z,101653.81
2023-05-08T02:33:44.181Z,101658.81
2023-05-08T02:36:13.917Z,101662.06
2023-05-08T02:38:44.204Z,101662.06
2023-05-08T02:41:12.475Z,101664.50
2023-05-08T02:43:40.259Z,101661.06
2023-05-08T02:46:16.292Z,101666.94
2023-05-08T02:49:03.578Z,101669.03
2023-05-08T02:51:39.784Z,101663.50
2023-05-08T02:54:14.697Z,101658.38
2023-05-08T02:56:50.416Z,101659.09
2023-05-08T02:59:22.339Z,101650.72
2023-05-08T03:02:04.461Z,101655.41
2023-05-08T03:04:36.731Z,101652.44
2023-05-08T03:07:05.536Z,101652.00
2023-05-08T03:09:40.568Z,101641.72
2023-05-08T03:12:17.347Z,101643.44
2023-05-08T03:15:00.206Z,101642.44
2023-05-08T03:17:31.929Z,101641.47
2023-05-08T03:20:06.135Z,101640.44
2023-05-08T03:22:36.102Z,101647.13
2023-05-08T03:25:05.633Z,101651.41
2023-05-08T03:27:36.048Z,101656.66
2023-05-08T03:30:04.982Z,101660.09
2023-05-08T03:32:35.651Z,101659.22
2023-05-08T03:35:05.591Z,101666.91
2023-05-08T03:37:32.736Z,101667.47
2023-05-08T03:40:00.378Z,101664.78
2023-05-08T03:42:28.576Z,101656.66
2023-05-08T03:44:56.406Z,101655.84
2023-05-08T03:47:26.370Z,101661.25
2023-05-08T03:49:54.351Z,101660.22
2023-05-08T03:52:21.360Z,101656.41
2023-05-08T03:54:48.720Z,101651.56
2023-05-08T03:57:15.880Z,101654.69
2023-05-08T03:59:52.343Z,101651.00
2023-05-08T04:02:47.386Z,101643.31
2023-05-08T04:05:34.588Z,101648.00
2023-05-08T04:08:16.537Z,101645.31
2023-05-08T04:10:51.380Z,101652.44
2023-05-08T04:13:31.349Z,101650.44
2023-05-08T04:16:07.682Z,101641.63
2023-05-08T04:18:38.868Z,101640.16
2023-05-08T04:21:11.579Z,101635.63
2023-05-08T04:23:42.176Z,101636.47
2023-05-08T04:26:13.179Z,101635.06
2023-05-08T04:28:42.752Z,101630.50
2023-05-08T04:31:10.655Z,101637.63
2023-05-08T04:33:38.744Z,101638.78
2023-05-08T04:36:07.018Z,101639.34
2023-05-08T04:38:37.868Z,101644.19
2023-05-08T04:41:06.179Z,101644.75
2023-05-08T04:43:33.562Z,101642.16
2023-05-08T04:46:00.718Z,101653.84
2023-05-08T04:48:28.216Z,101652.97
2023-05-08T04:50:55.180Z,101656.53
2023-05-08T04:53:22.372Z,101655.56
2023-05-08T04:55:49.445Z,101659.25
2023-05-08T04:58:16.356Z,101650.16
2023-05-08T05:00:43.290Z,101653.84
2023-05-08T05:03:10.804Z,101652.13
2023-05-08T05:05:39.023Z,101658.56
2023-05-08T05:08:07.066Z,101651.84
2023-05-08T05:10:34.114Z,101657.25
2023-05-08T05:13:01.105Z,101649.16
2023-05-08T05:15:28.310Z,101658.13
2023-05-08T05:17:55.583Z,101657.81
2023-05-08T05:20:22.599Z,101661.50
2023-05-08T05:22:49.631Z,101664.09
2023-05-08T05:25:16.938Z,101669.50
2023-05-08T05:27:45.049Z,101674.91
2023-05-08T05:30:12.661Z,101680.72
2023-05-08T05:32:40.010Z,101686.56
2023-05-08T05:35:09.262Z,101682.88
2023-05-08T05:37:36.484Z,101685.13
2023-05-08T05:40:03.925Z,101681.41
2023-05-08T05:42:32.932Z,101684.84
2023-05-08T05:45:02.039Z,101698.22
2023-05-08T05:47:30.495Z,101701.78
2023-05-08T05:49:57.973Z,101701.47
2023-05-08T05:52:25.754Z,101699.09
2023-05-08T05:54:53.290Z,101704.63
2023-05-08T05:57:20.717Z,101697.94
2023-05-08T05:59:47.691Z,101701.34
2023-05-08T06:02:18.924Z,101698.47
2023-05-08T06:04:46.858Z,101700.63
2023-05-08T06:07:14.866Z,101704.72
2023-05-08T06:09:42.226Z,101698.19
2023-05-08T06:12:10.496Z,101697.75
2023-05-08T06:14:37.638Z,101698.16
2023-05-08T06:17:05.327Z,101697.41
2023-05-08T06:19:32.455Z,101687.28
2023-05-08T06:21:59.381Z,101695.50
2023-05-08T06:24:26.374Z,101693.47
2023-05-08T06:26:53.403Z,101696.63
2023-05-08T06:29:20.445Z,101695.34
2023-05-08T06:31:47.400Z,101692.34
2023-05-08T06:34:14.425Z,101688.59
2023-05-08T06:36:41.602Z,101687.53
2023-05-08T06:39:08.608Z,101689.50
2023-05-08T06:41:35.554Z,101675.16
2023-05-08T06:44:02.475Z,101680.28
2023-05-08T06:46:30.132Z,101684.94
2023-05-08T06:48:57.223Z,101681.44
2023-05-08T06:51:24.185Z,101686.38
2023-05-08T06:53:51.134Z,101685.53
2023-05-08T06:56:18.061Z,101679.25
2023-05-08T06:58:50.783Z,101691.34
2023-05-08T07:01:28.078Z,101686.16
2023-05-08T07:03:55.037Z,101695.00
2023-05-08T07:06:22.249Z,101684.34
2023-05-08T07:08:49.754Z,101687.28
2023-05-08T07:11:16.790Z,101680.53
2023-05-08T07:13:43.768Z,101682.66
2023-05-08T07:16:11.427Z,101692.25
2023-05-08T07:18:38.579Z,101684.53
2023-05-08T07:21:05.775Z,101684.91
2023-05-08T07:23:32.845Z,101674.63
2023-05-08T07:25:59.951Z,101677.50
2023-05-08T07:28:26.854Z,101673.84
2023-05-08T07:30:53.839Z,101680.38
2023-05-08T07:33:20.699Z,101674.56
2023-05-08T07:35:47.730Z,101682.00
2023-05-08T07:38:14.658Z,101679.34
2023-05-08T07:40:41.740Z,101682.25
2023-05-08T07:43:08.863Z,101682.28
2023-05-08T07:45:36.123Z,101683.78
2023-05-08T07:48:03.184Z,101674.94
2023-05-08T07:50:30.249Z,101687.19
2023-05-08T07:52:57.325Z,101687.03
2023-05-08T07:55:24.312Z,101691.13
2023-05-08T07:57:51.194Z,101689.16
2023-05-08T08:00:18.377Z,101694.78
2023-05-08T08:02:46.035Z,101699.72
2023-05-08T08:05:13.510Z,101692.25
2023-05-08T08:07:40.651Z,101690.97
2023-05-08T08:10:08.494Z,101687.53
2023-05-08T08:12:35.421Z,101681.31
2023-05-08T08:15:02.403Z,101687.38
2023-05-08T08:17:29.463Z,101682.69
2023-05-08T08:19:57.433Z,101683.19
2023-05-08T08:22:26.259Z,101688.66
2023-05-08T08:24:56.041Z,101680.56
2023-05-08T08:27:23.597Z,101679.25
2023-05-08T08:29:52.517Z,101678.44
2023-05-08T08:32:25.731Z,101673.88
2023-05-08T08:34:52.776Z,101674.50
2023-05-08T08:37:19.722Z,101697.53
2023-05-08T08:39:48.550Z,101702.59
2023-05-08T08:42:15.788Z,101704.94
2023-05-08T08:44:43.243Z,101709.81
2023-05-08T08:47:16.960Z,101703.22
2023-05-08T08:49:49.014Z,101702.88
2023-05-08T08:52:36.544Z,101714.69
2023-05-08T08:55:12.457Z,101718.69
2023-05-08T08:57:51.988Z,101713.34
2023-05-08T09:00:21.135Z,101718.00
2023-05-08T09:02:51.634Z,101709.81
2023-05-08T09:05:19.178Z,101708.31
2023-05-08T09:07:46.581Z,101702.34
2023-05-08T09:10:17.255Z,101710.78
2023-05-08T09:12:45.314Z,101701.59
2023-05-08T09:15:12.804Z,101701.25
2023-05-08T09:17:40.670Z,101699.19
2023-05-08T09:20:09.340Z,101699.16
2023-05-08T09:22:37.544Z,101697.47
2023-05-08T09:25:05.024Z,101707.09
2023-05-08T09:27:33.104Z,101708.53
2023-05-08T09:30:03.066Z,101705.84
2023-05-08T09:32:31.707Z,101715.69
2023-05-08T09:34:59.595Z,101715.38
2023-05-08T09:37:27.544Z,101717.78
2023-05-08T09:39:55.411Z,101718.03
2023-05-08T09:42:37.715Z,101715.16
2023-05-08T09:45:05.226Z,101726.81
2023-05-08T09:47:34.852Z,101716.69
2023-05-08T09:50:05.255Z,101720.47
2023-05-08T09:52:33.790Z,101719.28
2023-05-08T09:55:09.918Z,101717.78
2023-05-08T09:57:39.752Z,101726.97
2023-05-08T10:00:10.515Z,101721.50
2023-05-08T10:02:54.576Z,101716.47
2023-05-08T10:05:33.066Z,101718.41
2023-05-08T10:08:20.896Z,101708.28
2023-05-08T10:10:48.629Z,101723.91
2023-05-08T10:13:15.760Z,101727.63
2023-05-08T10:15:44.087Z,101726.66
2023-05-08T10:18:12.384Z,101726.03
2023-05-08T10:20:41.315Z,101728.66
2023-05-08T10:23:13.449Z,101729.69
2023-05-08T10:25:45.897Z,101728.06
2023-05-08T10:28:43.494Z,101726.44
2023-05-08T10:31:17.622Z,101723.03
2023-05-08T10:33:46.881Z,101715.94
2023-05-08T10:36:15.165Z,101713.56
2023-05-08T10:38:43.462Z,101710.25
2023-05-08T10:41:13.985Z,101704.19
2023-05-08T10:43:43.795Z,101694.44
2023-05-08T10:46:29.525Z,101698.44
2023-05-08T10:49:15.379Z,101694.41
2023-05-08T10:51:49.881Z,101696.56
2023-05-08T10:54:27.014Z,101683.00
2023-05-08T10:57:08.578Z,101685.25
2023-05-08T10:59:39.396Z,101686.69
2023-05-08T11:02:08.259Z,101681.44
2023-05-08T11:04:35.683Z,101690.06
2023-05-08T11:07:04.509Z,101672.63
2023-05-08T11:09:47.354Z,101679.41
2023-05-08T11:12:28.063Z,101678.66
2023-05-08T11:15:06.890Z,101679.41
2023-05-08T11:17:34.671Z,101685.09
2023-05-08T11:20:04.293Z,101682.63
2023-05-08T11:22:33.407Z,101680.88
2023-05-08T11:25:09.361Z,101668.03
2023-05-08T11:27:51.743Z,101672.41
2023-05-08T11:30:23.250Z,101671.97
2023-05-08T11:33:06.383Z,101664.81
2023-05-08T11:35:46.045Z,101678.94
2023-05-08T11:38:26.789Z,101663.84
2023-05-08T11:41:25.778Z,101673.22
2023-05-08T11:44:08.229Z,101660.38
2023-05-08T11:46:39.414Z,101657.69
2023-05-08T11:49:12.100Z,101648.84
2023-05-08T11:51:39.450Z,101650.91
2023-05-08T11:54:06.808Z,101641.53
2023-05-08T11:56:33.978Z,101643.41
2023-05-08T11:59:09.611Z,101649.28
2023-05-08T12:01:53.510Z,101651.13
2023-05-08T12:04:30.858Z,101653.44
2023-05-08T12:06:59.792Z,101639.50
2023-05-08T12:09:27.244Z,101649.28
2023-05-08T12:11:58.154Z,101630.03
2023-05-08T12:14:25.433Z,101621.00
2023-05-08T12:16:54.744Z,101613.19
2023-05-08T12:19:24.755Z,101613.94
2023-05-08T12:21:51.845Z,101623.41
2023-05-08T12:24:23.556Z,101621.72
2023-05-08T12:27:03.453Z,101621.72
2023-05-08T12:29:30.795Z,101618.22
2023-05-08T12:31:58.614Z,101618.38
2023-05-08T12:34:28.622Z,101628.41
2023-05-08T12:37:03.656Z,101627.09
2023-05-08T12:39:35.767Z,101620.16
2023-05-08T12:42:06.597Z,101633.00
2023-05-08T12:44:33.622Z,101625.13
2023-05-08T12:47:05.288Z,101626.63
2023-05-08T12:49:33.202Z,101633.91
2023-05-08T12:52:09.908Z,101626.47
2023-05-08T12:54:39.005Z,101626.81
2023-05-08T12:57:21.543Z,101638.41
2023-05-08T12:59:49.119Z,101630.56
2023-05-08T13:02:24.262Z,101629.06
2023-05-08T13:04:58.136Z,101631.91
2023-05-08T13:07:33.155Z,101648.56
2023-05-08T13:10:04.559Z,101641.06
2023-05-08T13:12:32.367Z,101634.28
2023-05-08T13:14:59.456Z,101635.28
2023-05-08T13:17:27.074Z,101628.66
2023-05-08T13:19:54.442Z,101625.81
2023-05-08T13:22:23.284Z,101632.25
2023-05-08T13:24:53.836Z,101622.41
2023-05-08T13:27:21.169Z,101616.72
2023-05-08T13:29:48.768Z,101618.75
2023-05-08T13:32:16.041Z,101608.94
2023-05-08T13:34:49.804Z,101606.31
2023-05-08T13:37:20.659Z,101603.22
2023-05-08T13:39:47.832Z,101605.22
2023-05-08T13:42:14.800Z,101609.59
2023-05-08T13:44:42.137Z,101600.47
2023-05-08T13:47:10.178Z,101598.72
2023-05-08T13:49:37.094Z,101583.78
2023-05-08T13:52:08.044Z,101578.38
2023-05-08T13:54:35.261Z,101574.94
2023-05-08T13:57:03.257Z,101571.78
2023-05-08T13:59:31.377Z,101578.94
2023-05-08T14:01:58.762Z,101581.81
2023-05-08T14:04:25.889Z,101588.44
2023-05-08T14:06:53.318Z,101578.94
2023-05-08T14:09:20.545Z,101580.09
2023-05-08T14:11:47.440Z,101574.50
2023-05-08T14:14:14.493Z,101571.09
2023-05-08T14:16:42.094Z,101565.50
2023-05-08T14:19:10.100Z,101565.53
2023-05-08T14:21:37.480Z,101561.81
2023-05-08T14:24:04.799Z,101562.50
2023-05-08T14:26:31.711Z,101559.53
2023-05-08T14:28:58.871Z,101551.88
2023-05-08T14:31:26.240Z,101552.38
2023-05-08T14:33:53.713Z,101564.09
2023-05-08T14:36:20.759Z,101565.31
2023-05-08T14:38:48.026Z,101574.81
2023-05-08T14:41:14.965Z,101576.50
2023-05-08T14:43:43.155Z,101573.03
2023-05-08T14:46:10.436Z,101572.03
2023-05-08T14:48:37.448Z,101562.00
2023-05-08T14:51:05.043Z,101568.28
2023-05-08T14:53:32.548Z,101569.47
2023-05-08T14:56:02.418Z,101561.81
2023-05-08T14:58:29.538Z,101557.41
2023-05-08T15:00:56.504Z,101562.50
2023-05-08T15:03:24.003Z,101562.69
2023-05-08T15:05:51.019Z,101559.50
2023-05-08T15:08:18.339Z,101564.06
2023-05-08T15:10:45.339Z,101567.53
2023-05-08T15:13:12.448Z,101561.22
2023-05-08T15:15:39.452Z,101576.16
2023-05-08T15:18:09.474Z,101579.59
2023-05-08T15:20:39.495Z,101591.81
2023-05-08T15:23:06.707Z,101577.88
2023-05-08T15:25:33.768Z,101576.38
2023-05-08T15:28:01.257Z,101588.44
2023-05-08T15:30:28.337Z,101585.03
2023-05-08T15:32:55.373Z,101591.00
2023-05-08T15:35:22.280Z,101594.34
2023-05-08T15:37:49.252Z,101574.34
2023-05-08T15:40:16.239Z,101584.44
2023-05-08T15:42:43.158Z,101582.34
2023-05-08T15:45:10.593Z,101581.66
2023-05-08T15:47:37.573Z,101587.66
2023-05-08T15:50:04.683Z,101593.28
2023-05-08T15:52:31.656Z,101597.50
2023-05-08T15:54:58.581Z,101592.28
2023-05-08T15:57:27.171Z,101600.34
2023-05-08T15:59:54.209Z,101595.88
2023-05-08T16:02:21.189Z,101588.31
2023-05-08T16:04:48.187Z,101581.50
2023-05-08T16:07:15.174Z,101581.81
2023-05-08T16:09:42.352Z,101577.03
2023-05-08T16:12:09.539Z,101582.13
2023-05-08T16:14:36.694Z,101589.56
2023-05-08T16:17:04.103Z,101584.69
2023-05-08T16:19:31.114Z,101589.28
2023-05-08T16:21:58.270Z,101590.28
2023-05-08T16:24:25.229Z,101596.06
2023-05-08T16:26:52.195Z,101606.28
2023-05-08T16:29:19.144Z,101600.19
2023-05-08T16:31:46.328Z,101602.44
2023-05-08T16:34:13.426Z,101605.97
2023-05-08T16:36:40.652Z,101622.81
2023-05-08T16:39:08.742Z,101622.44
2023-05-08T16:41:35.877Z,101629.44
2023-05-08T16:44:02.859Z,101624.97
2023-05-08T16:46:30.652Z,101620.91
2023-05-08T16:48:57.931Z,101620.81
2023-05-08T16:51:25.258Z,101607.94
2023-05-08T16:53:52.177Z,101611.41
2023-05-08T16:56:19.308Z,101614.88
2023-05-08T16:58:46.346Z,101612.22
2023-05-08T17:01:14.302Z,101616.88
2023-05-08T17:03:43.876Z,101609.78
2023-05-08T17:06:16.608Z,101617.50
2023-05-08T17:08:46.994Z,101627.00
2023-05-08T17:11:15.931Z,101617.34
2023-05-08T17:13:47.172Z,101624.31
2023-05-08T17:16:14.701Z,101623.53
2023-05-08T17:18:41.981Z,101621.53
2023-05-08T17:21:08.927Z,101612.47
2023-05-08T17:23:36.189Z,101612.16
2023-05-08T17:26:03.750Z,101618.44
2023-05-08T17:28:31.313Z,101615.00
2023-05-08T17:31:01.261Z,101621.00
2023-05-08T17:33:28.778Z,101613.72
2023-05-08T17:35:58.859Z,101620.00
2023-05-08T17:38:25.916Z,101624.56
2023-05-08T17:40:52.880Z,101618.78
2023-05-08T17:43:20.798Z,101623.53
2023-05-08T17:45:48.473Z,101626.91
2023-05-08T17:48:17.066Z,101613.69
2023-05-08T17:50:46.945Z,101609.78
2023-05-08T17:53:13.980Z,101618.91
2023-05-08T17:55:42.445Z,101615.69
2023-05-08T17:58:09.490Z,101610.84
2023-05-08T18:00:37.819Z,101616.59
2023-05-08T18:03:05.269Z,101616.88
2023-05-08T18:05:32.439Z,101624.09
2023-05-08T18:08:00.274Z,101625.16
2023-05-08T18:10:34.779Z,101621.41
2023-05-08T18:13:01.997Z,101620.63
2023-05-08T18:15:29.202Z,101619.88
2023-05-08T18:17:57.084Z,101612.13
2023-05-08T18:20:26.877Z,101625.69
2023-05-08T18:22:53.983Z,101635.81
2023-05-08T18:25:20.981Z,101627.53
2023-05-08T18:27:50.111Z,101631.16
2023-05-08T18:30:17.257Z,101632.88
2023-05-08T18:32:44.374Z,101640.47
2023-05-08T18:35:14.405Z,101640.56
2023-05-08T18:37:41.537Z,101639.28
2023-05-08T18:40:09.114Z,101634.47
2023-05-08T18:42:38.598Z,101642.31
2023-05-08T18:45:09.196Z,101656.84
2023-05-08T18:47:36.206Z,101654.78
2023-05-08T18:50:03.650Z,101669.22
2023-05-08T18:52:30.631Z,101673.25
2023-05-08T18:54:57.604Z,101667.44
2023-05-08T18:57:27.223Z,101666.13
2023-05-08T18:59:54.185Z,101676.34
2023-05-08T19:02:21.113Z,101671.19
2023-05-08T19:04:48.170Z,101665.84
2023-05-08T19:07:15.278Z,101664.44
2023-05-08T19:09:42.173Z,101663.06
2023-05-08T19:12:09.164Z,101667.84
2023-05-08T19:14:36.183Z,101664.44
2023-05-08T19:17:03.231Z,101667.38
2023-05-08T19:19:30.854Z,101668.09
2023-05-08T19:21:57.996Z,101653.91
2023-05-08T19:24:29.814Z,101659.56
2023-05-08T19:26:57.477Z,101663.06
2023-05-08T19:29:24.699Z,101660.03
2023-05-08T19:31:52.054Z,101671.94
2023-05-08T19:34:19.171Z,101673.75
2023-05-08T19:36:46.380Z,101684.09
2023-05-08T19:39:13.993Z,101685.00
2023-05-08T19:41:40.984Z,101685.91
2023-05-08T19:44:07.956Z,101693.66
2023-05-08T19:46:35.243Z,101695.03
2023-05-08T19:49:02.712Z,101693.53
2023-05-08T19:51:32.747Z,101695.72
2023-05-08T19:54:02.630Z,101701.13
2023-05-08T19:56:29.589Z,101695.19
2023-05-08T19:58:56.584Z,101695.25
2023-05-08T20:01:23.534Z,101694.44
2023-05-08T20:03:51.081Z,101697.34
2023-05-08T20:06:18.274Z,101701.09
2023-05-08T20:08:45.391Z,101702.94
2023-05-08T20:11:12.420Z,101701.31
2023-05-08T20:13:39.675Z,101707.59
2023-05-08T20:16:07.112Z,101719.22
2023-05-08T20:18:35.725Z,101716.91
2023-05-08T20:21:02.903Z,101720.56
2023-05-08T20:23:30.053Z,101724.00
2023-05-08T20:25:57.079Z,101722.34
2023-05-08T20:28:26.271Z,101724.25
2023-05-08T20:30:53.300Z,101719.94
2023-05-08T20:33:20.830Z,101722.47
2023-05-08T20:35:47.943Z,101720.31
2023-05-08T20:38:16.129Z,101725.19
2023-05-08T20:40:43.263Z,101719.78
2023-05-08T20:43:10.759Z,101724.03
2023-05-08T20:45:38.382Z,101733.72
2023-05-08T20:48:06.062Z,101734.56
2023-05-08T20:50:33.230Z,101734.66
2023-05-08T20:53:00.154Z,101721.69
2023-05-08T20:55:27.141Z,101717.41
2023-05-08T20:57:54.637Z,101719.81
2023-05-08T21:00:21.634Z,101727.88
2023-05-08T21:02:48.562Z,101721.00
2023-05-08T21:05:16.256Z,101719.53
2023-05-08T21:07:43.577Z,101715.50
2023-05-08T21:10:10.877Z,101723.50
2023-05-08T21:12:38.927Z,101707.84
2023-05-08T21:15:06.924Z,101705.25
2023-05-08T21:17:33.956Z,101702.34
2023-05-08T21:20:00.977Z,101710.19
2023-05-08T21:22:27.898Z,101701.03
2023-05-08T21:24:54.836Z,101702.59
2023-05-08T21:27:21.832Z,101697.16
2023-05-08T21:29:48.870Z,101711.41
2023-05-08T21:32:15.824Z,101706.84
2023-05-08T21:34:42.752Z,101707.69
2023-05-08T21:37:11.142Z,101707.69
2023-05-08T21:39:38.250Z,101704.13
2023-05-08T21:42:05.276Z,101702.59
2023-05-08T21:44:32.192Z,101701.59
2023-05-08T21:46:59.163Z,101704.59
2023-05-08T21:49:26.167Z,101706.31
2023-05-08T21:51:53.367Z,101703.75
2023-05-08T21:54:23.229Z,101704.91
2023-05-08T21:56:50.804Z,101707.09
2023-05-08T21:59:17.750Z,101708.25
2023-05-08T22:01:44.698Z,101707.84
2023-05-08T22:04:11.662Z,101699.31
2023-05-08T22:06:38.687Z,101699.66
2023-05-08T22:09:05.785Z,101705.34
2023-05-08T22:11:33.187Z,101701.94
2023-05-08T22:14:00.128Z,101704.25
2023-05-08T22:16:27.173Z,101701.38
2023-05-08T22:18:54.109Z,101691.69
2023-05-08T22:21:21.020Z,101689.31
2023-05-08T22:23:48.027Z,101693.00
2023-05-08T22:26:14.956Z,101700.59
2023-05-08T22:28:41.890Z,101702.31
2023-05-08T22:31:08.788Z,101706.16
2023-05-08T22:33:35.782Z,101703.78
2023-05-08T22:36:02.747Z,101701.81
2023-05-08T22:38:29.676Z,101694.72
2023-05-08T22:40:57.595Z,101702.66
2023-05-08T22:43:28.061Z,101701.66
2023-05-08T22:45:55.805Z,101703.69
2023-05-08T22:48:24.999Z,101704.38
2023-05-08T22:50:52.762Z,101693.13
2023-05-08T22:53:19.783Z,101695.31
2023-05-08T22:55:46.855Z,101697.88
2023-05-08T22:58:13.866Z,101698.00
2023-05-08T23:00:41.076Z,101696.31
2023-05-08T23:03:08.070Z,101698.16
2023-05-08T23:05:37.658Z,101701.03
2023-05-08T23:08:04.904Z,101700.63
2023-05-08T23:10:31.954Z,101703.34
2023-05-08T23:12:59.179Z,101701.41
2023-05-08T23:15:26.207Z,101701.69
2023-05-08T23:17:53.216Z,101696.53
2023-05-08T23:20:20.485Z,101684.44
2023-05-08T23:22:47.372Z,101680.31
2023-05-08T23:25:14.669Z,101679.31
2023-05-08T23:27:44.853Z,101670.31
2023-05-08T23:30:19.272Z,101673.75
2023-05-08T23:32:46.545Z,101674.06
2023-05-08T23:35:14.051Z,101670.94
2023-05-08T23:37:41.281Z,101673.66
2023-05-08T23:40:09.042Z,101670.09
2023-05-08T23:42:37.259Z,101664.69
2023-05-08T23:45:07.075Z,101666.97
2023-05-08T23:47:34.112Z,101658.69
2023-05-08T23:50:01.236Z,101651.72
2023-05-08T23:52:28.218Z,101652.59
2023-05-08T23:54:55.254Z,101652.72
2023-05-08T23:57:25.774Z,101648.31
2023-05-08T23:59:53.088Z,101647.31
